Time;durP1;ratioP1;P1;durP2;ratioP2;P2;SDS_P1;SDS_P2;PMS_P1;PMS_P2;Temp;Humidity;BMP_temperature;BMP_pressure;BME280_temperature;BME280_humidity;BME280_pressure;Samples;Min_cycle;Max_cycle;Signal;HPM_P1;HPM_P2
2022/07/23 00:01:29;;;;;;;26.40;2.80;;;;;;;26.20;56.67;99519.41;7316633;19;130830;-35
2022/07/23 00:03:54;;;;;;;36.23;3.67;;;;;;;26.13;57.16;99505.25;7315793;19;129118;-35
2022/07/23 00:06:20;;;;;;;25.67;2.53;;;;;;;26.19;57.28;99525.69;7316112;19;128937;-34
2022/07/23 00:08:46;;;;;;;29.43;3.07;;;;;;;26.18;57.28;99524.03;7315240;19;129715;-39
2022/07/23 00:11:11;;;;;;;29.53;3.13;;;;;;;26.21;57.46;99513.16;7315670;19;129449;-36
2022/07/23 00:13:36;;;;;;;28.37;3.03;;;;;;;26.22;57.02;99508.69;7314969;19;129832;-35
2022/07/23 00:16:02;;;;;;;40.80;4.27;;;;;;;26.22;57.28;99509.53;7314322;19;129743;-37
2022/07/23 00:18:27;;;;;;;35.57;3.40;;;;;;;26.21;57.06;99502.63;7315309;19;128871;-37
2022/07/23 00:20:53;;;;;;;28.67;2.97;;;;;;;26.20;56.82;99503.59;7315400;19;129337;-32
2022/07/23 00:23:18;;;;;;;20.07;2.23;;;;;;;26.22;57.16;99498.97;7315743;19;131141;-36
2022/07/23 00:25:45;;;;;;;39.20;3.70;;;;;;;26.22;56.90;99513.97;7315620;19;129517;-35
2022/07/23 00:28:11;;;;;;;45.53;4.18;;;;;;;26.21;56.95;99512.31;7314884;19;129612;-41
2022/07/23 00:30:36;;;;;;;27.47;2.87;;;;;;;26.21;57.05;99501.78;7314164;19;129895;-35
2022/07/23 00:33:05;;;;;;;31.47;3.23;;;;;;;26.21;57.42;99502.63;7315443;19;129399;-38
2022/07/23 00:35:34;;;;;;;16.00;2.25;;;;;;;26.19;57.40;99494.06;7315909;19;128978;-35
2022/07/23 00:38:00;;;;;;;37.80;3.72;;;;;;;26.22;56.45;99493.72;7314357;19;128988;-43
2022/07/23 00:40:26;;;;;;;25.60;2.78;;;;;;;26.19;57.33;99493.22;7315824;19;129201;-35
2022/07/23 00:42:52;;;;;;;17.38;2.30;;;;;;;26.20;56.68;99500.97;7315231;19;129864;-37
2022/07/23 00:45:18;;;;;;;33.60;3.07;;;;;;;26.20;56.92;99500.97;7315829;19;129157;-35
2022/07/23 00:47:43;;;;;;;32.55;3.25;;;;;;;26.22;57.44;99504.25;7313045;19;129482;-34
2022/07/23 00:50:10;;;;;;;29.17;3.27;;;;;;;26.21;56.62;99496.53;7312961;19;129030;-38
2022/07/23 00:52:37;;;;;;;29.08;3.08;;;;;;;26.20;56.83;99500.97;7314656;19;131144;-39
2022/07/23 00:55:04;;;;;;;14.25;2.17;;;;;;;26.20;57.10;99495.69;7315698;19;128888;-35
2022/07/23 00:57:30;;;;;;;34.70;3.42;;;;;;;26.21;57.07;99501.78;7313722;19;128831;-36
2022/07/23 00:59:57;;;;;;;20.10;2.67;;;;;;;26.22;56.87;99498.97;7313782;19;129429;-35
2022/07/23 01:02:26;;;;;;;32.45;3.53;;;;;;;26.12;56.44;99476.44;7314528;19;130874;-33
2022/07/23 01:04:53;;;;;;;31.25;3.33;;;;;;;26.14;55.92;99485.84;7314642;19;129339;-38
2022/07/23 01:07:18;;;;;;;29.98;3.05;;;;;;;26.20;56.99;99490.41;7313229;19;129584;-36
2022/07/23 01:09:45;;;;;;;28.93;3.13;;;;;;;26.23;56.80;99484.00;7310510;19;129899;-40
2022/07/23 01:12:10;;;;;;;27.30;3.05;;;;;;;26.23;57.14;99484.78;7314486;19;129848;-31
2022/07/23 01:14:36;;;;;;;36.23;3.50;;;;;;;26.23;57.07;99484.00;7314305;19;129026;-41
2022/07/23 01:17:01;;;;;;;33.33;3.37;;;;;;;26.16;56.80;99461.94;7313044;19;128817;-40
2022/07/23 01:19:27;;;;;;;27.57;2.80;;;;;;;26.24;56.82;99475.91;7314322;19;129488;-37
2022/07/23 01:21:53;;;;;;;43.60;4.43;;;;;;;26.24;56.68;99473.28;7313426;19;129782;-39
2022/07/23 01:24:19;;;;;;;27.25;2.70;;;;;;;26.15;56.97;99453.22;7314899;19;129235;-39
2022/07/23 01:26:47;;;;;;;30.27;2.97;;;;;;;26.24;57.05;99460.09;7313382;19;129571;-37
2022/07/23 01:29:13;;;;;;;30.75;3.10;;;;;;;26.23;56.42;99461.06;7312903;19;129097;-41
2022/07/23 01:31:39;;;;;;;21.73;2.63;;;;;;;26.24;57.19;99459.28;7314055;19;130280;-38
2022/07/23 01:34:06;;;;;;;35.05;3.25;;;;;;;26.25;56.22;99435.38;7314034;19;128885;-37
2022/07/23 01:36:33;;;;;;;31.05;3.40;;;;;;;26.25;56.72;99448.56;7313445;19;129867;-38
2022/07/23 01:38:58;;;;;;;22.30;2.75;;;;;;;26.25;56.90;99440.66;7313599;19;129918;-40
2022/07/23 01:41:23;;;;;;;30.83;3.10;;;;;;;26.26;56.87;99438.84;7313741;19;130276;-39
2022/07/23 01:43:49;;;;;;;38.30;3.70;;;;;;;26.26;56.59;99425.66;7314048;19;129066;-38
2022/07/23 01:46:14;;;;;;;28.73;3.20;;;;;;;26.26;56.88;99421.19;7313547;19;128990;-40
2022/07/23 01:48:40;;;;;;;22.40;2.63;;;;;;;26.24;56.49;99412.66;7313780;19;129005;-38
2022/07/23 01:51:05;;;;;;;37.30;3.57;;;;;;;26.24;56.79;99412.66;7311361;19;129141;-38
2022/07/23 01:53:31;;;;;;;25.97;2.83;;;;;;;26.25;57.04;99409.00;7314089;19;128708;-37
2022/07/23 01:56:00;;;;;;;40.73;3.93;;;;;;;26.25;57.30;99409.00;7313834;19;128757;-40
2022/07/23 01:58:27;;;;;;;25.35;3.10;;;;;;;26.15;56.83;99387.34;7312825;19;130361;-38
2022/07/23 02:00:53;;;;;;;25.67;2.75;;;;;;;26.22;56.41;99408.53;7313349;19;130374;-40
2022/07/23 02:03:19;;;;;;;32.75;3.17;;;;;;;26.23;57.24;99411.00;7313217;19;128871;-35
2022/07/23 02:05:44;;;;;;;28.53;3.10;;;;;;;26.24;57.15;99410.03;7312686;19;128948;-36
2022/07/23 02:08:09;;;;;;;37.27;3.70;;;;;;;26.25;56.83;99409.00;7312235;19;129025;-40
2022/07/23 02:10:35;;;;;;;24.40;2.73;;;;;;;26.24;56.27;99407.38;7310617;19;130198;-37
2022/07/23 02:13:00;;;;;;;44.53;4.40;;;;;;;26.26;56.69;99405.38;7311801;19;129043;-37
2022/07/23 02:15:26;;;;;;;13.87;2.07;;;;;;;26.26;56.27;99397.47;7313272;19;128832;-38
2022/07/23 02:17:51;;;;;;;37.77;3.70;;;;;;;26.27;56.84;99401.75;7309470;19;130667;-42
2022/07/23 02:20:17;;;;;;;30.47;3.30;;;;;;;26.27;56.62;99409.66;7311218;19;129581;-38
2022/07/23 02:22:42;;;;;;;38.60;3.93;;;;;;;26.25;56.65;99401.09;7313208;19;129013;-40
2022/07/23 02:25:09;;;;;;;27.90;3.17;;;;;;;26.20;56.57;99395.53;7312414;19;128922;-40
2022/07/23 02:27:35;;;;;;;50.00;4.57;;;;;;;26.26;56.39;99392.19;7309518;19;129177;-39
2022/07/23 02:30:00;;;;;;;35.30;3.42;;;;;;;26.25;56.93;99387.94;7310368;19;130050;-39
2022/07/23 02:32:26;;;;;;;30.77;2.93;;;;;;;26.26;56.39;99391.41;7312091;19;128906;-40
2022/07/23 02:34:51;;;;;;;25.30;2.77;;;;;;;26.25;56.51;99398.47;7311371;19;128908;-39
2022/07/23 02:37:17;;;;;;;30.57;3.17;;;;;;;26.18;57.04;99396.72;7310182;19;130008;-38
2022/07/23 02:39:43;;;;;;;36.90;4.07;;;;;;;26.25;56.23;99410.81;7311076;19;129852;-38
2022/07/23 02:42:09;;;;;;;33.33;3.57;;;;;;;26.25;56.51;99403.75;7311532;19;129118;-40
2022/07/23 02:44:34;;;;;;;25.07;2.83;;;;;;;26.27;56.47;99406.19;7312035;19;129289;-41
2022/07/23 02:46:59;;;;;;;11.33;2.03;;;;;;;26.26;56.72;99394.81;7309634;19;129052;-35
2022/07/23 02:49:25;;;;;;;27.27;2.87;;;;;;;26.26;56.29;99392.19;7309873;19;129994;-36
2022/07/23 02:51:51;;;;;;;23.43;2.57;;;;;;;26.27;56.56;99385.94;7312045;19;128791;-41
2022/07/23 02:54:16;;;;;;;26.13;2.97;;;;;;;26.28;56.50;99376.22;7311666;19;129446;-36
2022/07/23 02:56:42;;;;;;;27.20;3.03;;;;;;;26.25;56.69;99366.84;7309760;19;129495;-43
2022/07/23 02:59:08;;;;;;;37.50;3.73;;;;;;;26.27;56.64;99364.88;7311293;19;130372;-34
2022/07/23 03:01:33;;;;;;;27.30;2.70;;;;;;;26.27;56.41;99362.22;7310993;19;129123;-38
2022/07/23 03:03:59;;;;;;;34.87;3.43;;;;;;;26.26;57.09;99365.84;7311541;19;129317;-38
2022/07/23 03:06:24;;;;;;;28.93;3.10;;;;;;;26.22;56.72;99356.66;7310622;19;129588;-37
2022/07/23 03:08:50;;;;;;;36.37;3.70;;;;;;;26.28;56.21;99382.31;7311633;19;130508;-39
2022/07/23 03:11:15;;;;;;;23.13;2.70;;;;;;;26.29;56.36;99378.69;7307789;19;130468;-41
2022/07/23 03:13:41;;;;;;;28.70;3.23;;;;;;;26.26;56.27;99381.66;7311792;19;128966;-36
2022/07/23 03:16:06;;;;;;;34.07;3.30;;;;;;;26.27;56.89;99377.22;7310124;19;131004;-36
2022/07/23 03:18:32;;;;;;;28.23;3.07;;;;;;;26.26;57.04;99380.84;7310064;19;129270;-37
2022/07/23 03:20:58;;;;;;;32.93;3.20;;;;;;;26.27;56.10;99378.03;7311478;19;129037;-37
2022/07/23 03:23:23;;;;;;;37.30;4.03;;;;;;;26.27;56.64;99375.41;7311258;19;129321;-43
2022/07/23 03:25:49;;;;;;;28.10;3.17;;;;;;;26.19;56.78;99362.28;7310182;19;129152;-41
2022/07/23 03:28:17;;;;;;;64.93;6.13;;;;;;;26.29;57.37;99369.94;7309301;19;129314;-39
2022/07/23 03:30:46;;;;;;;29.23;3.13;;;;;;;26.29;56.37;99373.41;7309595;19;129014;-37
2022/07/23 03:33:16;;;;;;;27.02;3.10;;;;;;;26.31;55.99;99366.13;7317883;19;130940;-39
2022/07/23 03:35:42;;;;;;;29.50;3.17;;;;;;;26.28;56.15;99363.84;7317723;19;130848;-37
2022/07/23 03:38:07;;;;;;;52.60;5.00;;;;;;;26.28;56.73;99361.22;7316479;19;130234;-37
2022/07/23 03:40:32;;;;;;;32.40;3.60;;;;;;;26.20;56.58;99337.56;7317281;19;129450;-36
2022/07/23 03:42:58;;;;;;;27.60;3.07;;;;;;;26.27;55.94;99351.69;7317598;19;128861;-42
2022/07/23 03:45:23;;;;;;;34.00;3.40;;;;;;;26.24;56.21;99338.88;7316996;19;129095;-38
2022/07/23 03:47:48;;;;;;;26.90;2.97;;;;;;;26.29;56.23;99352.34;7315073;19;129556;-38
2022/07/23 03:50:14;;;;;;;31.83;3.43;;;;;;;26.30;56.98;99364.50;7315378;19;129215;-37
2022/07/23 03:52:40;;;;;;;14.30;2.23;;;;;;;26.28;56.68;99355.94;7317843;19;128904;-37
2022/07/23 03:55:06;;;;;;;43.43;4.57;;;;;;;26.27;56.79;99354.31;7316659;19;129126;-40
2022/07/23 03:57:32;;;;;;;11.27;2.17;;;;;;;26.29;56.07;99357.59;7314772;19;129184;-40
2022/07/23 03:59:57;;;;;;;35.17;3.97;;;;;;;26.27;56.20;99353.50;7315766;19;128993;-37
2022/07/23 04:02:22;;;;;;;33.90;3.47;;;;;;;26.22;56.42;99337.38;7316026;19;128844;-41
2022/07/23 04:04:48;;;;;;;15.13;2.30;;;;;;;26.28;56.64;99355.16;7316855;19;129166;-36
2022/07/23 04:07:14;;;;;;;29.70;2.90;;;;;;;26.20;56.81;99340.19;7313772;19;130384;-36
2022/07/23 04:09:40;;;;;;;36.87;3.77;;;;;;;26.28;56.56;99360.41;7315040;19;128875;-38
2022/07/23 04:12:06;;;;;;;25.53;3.07;;;;;;;26.27;56.81;99362.22;7317313;19;129325;-36
2022/07/23 04:14:32;;;;;;;25.17;2.77;;;;;;;26.21;57.13;99351.56;7317075;19;130810;-37
2022/07/23 04:16:58;;;;;;;39.23;3.93;;;;;;;26.26;56.81;99365.03;7314035;19;129801;-36
2022/07/23 04:19:23;;;;;;;29.13;3.43;;;;;;;26.25;56.36;99361.56;7315497;19;128889;-42
2022/07/23 04:21:48;;;;;;;31.03;3.53;;;;;;;26.27;57.11;99362.22;7315854;19;130897;-36
2022/07/23 04:24:14;;;;;;;45.70;4.57;;;;;;;26.28;57.26;99366.50;7316000;19;130266;-40
2022/07/23 04:26:39;;;;;;;25.50;3.13;;;;;;;26.30;56.06;99369.78;7314248;19;129911;-39
2022/07/23 04:29:04;;;;;;;31.97;2.97;;;;;;;26.21;56.62;99349.75;7315403;19;129190;-35
2022/07/23 04:31:30;;;;;;;34.83;3.37;;;;;;;26.26;57.05;99355.28;7312979;19;129363;-35
2022/07/23 04:33:55;;;;;;;26.83;3.07;;;;;;;26.26;56.58;99360.56;7316097;19;130094;-42
2022/07/23 04:36:20;;;;;;;17.67;2.63;;;;;;;26.27;57.21;99364.88;7314582;19;129372;-36
2022/07/23 04:38:46;;;;;;;25.43;3.03;;;;;;;26.28;56.88;99370.97;7315442;19;128975;-35
2022/07/23 04:41:11;;;;;;;39.87;3.83;;;;;;;26.28;56.38;99376.22;7315825;19;128905;-39
2022/07/23 04:43:37;;;;;;;25.00;2.83;;;;;;;26.21;56.62;99364.75;7312582;19;129322;-36
2022/07/23 04:46:02;;;;;;;28.50;3.23;;;;;;;26.26;57.11;99363.19;7314361;19;129226;-41
2022/07/23 04:48:27;;;;;;;39.37;3.87;;;;;;;26.27;56.60;99354.31;7315361;19;129771;-35
2022/07/23 04:50:53;;;;;;;28.63;3.40;;;;;;;26.27;56.60;99348.22;7313360;19;129004;-39
2022/07/23 04:53:19;;;;;;;16.43;2.63;;;;;;;26.26;56.56;99357.94;7315113;19;129113;-39
2022/07/23 04:55:45;;;;;;;41.28;4.53;;;;;;;26.28;56.16;99369.13;7313706;19;130746;-38
2022/07/23 04:58:10;;;;;;;50.07;5.07;;;;;;;26.27;56.72;99349.03;7314981;19;128937;-38
2022/07/23 05:00:36;;;;;;;29.97;3.17;;;;;;;26.27;56.49;99356.97;7315498;19;129373;-36
2022/07/23 05:03:01;;;;;;;22.27;2.87;;;;;;;26.27;55.91;99356.97;7314968;19;131069;-34
2022/07/23 05:05:27;;;;;;;20.90;2.70;;;;;;;26.27;56.92;99354.31;7315193;19;129141;-39
2022/07/23 05:07:52;;;;;;;24.87;2.67;;;;;;;26.29;56.46;99347.06;7313092;19;129115;-39
2022/07/23 05:10:17;;;;;;;35.50;4.07;;;;;;;26.26;56.64;99347.38;7312485;19;128970;-37
2022/07/23 05:12:43;;;;;;;9.87;2.23;;;;;;;26.26;57.09;99355.28;7315148;19;129310;-38
2022/07/23 05:15:08;;;;;;;32.37;3.37;;;;;;;26.26;56.49;99360.56;7314555;19;129620;-36
2022/07/23 05:17:33;;;;;;;20.77;2.50;;;;;;;26.28;56.94;99353.31;7312871;19;129341;-34
2022/07/23 05:19:59;;;;;;;29.70;3.53;;;;;;;26.29;56.13;99367.31;7314326;19;129332;-41
2022/07/23 05:22:24;;;;;;;30.03;3.30;;;;;;;26.28;56.02;99378.88;7315218;19;130058;-36
2022/07/23 05:24:49;;;;;;;41.63;4.33;;;;;;;26.29;56.70;99377.88;7314472;19;130262;-38
2022/07/23 05:27:15;;;;;;;29.97;3.30;;;;;;;26.28;56.57;99387.56;7312213;19;129375;-42
2022/07/23 05:29:40;;;;;;;22.37;2.73;;;;;;;26.28;56.85;99387.56;7313640;19;129258;-36
2022/07/23 05:32:06;;;;;;;30.50;3.20;;;;;;;26.27;56.83;99378.03;7313758;19;129605;-38
2022/07/23 05:34:31;;;;;;;34.70;3.67;;;;;;;26.27;56.65;99380.69;7314315;19;129326;-43
2022/07/23 05:36:56;;;;;;;11.13;2.20;;;;;;;26.28;56.50;99379.66;7312903;19;128972;-36
2022/07/23 05:39:22;;;;;;;45.27;4.73;;;;;;;26.29;56.61;99375.22;7312758;19;129466;-41
2022/07/23 05:41:47;;;;;;;26.03;2.90;;;;;;;26.28;56.33;99392.84;7314095;19;129509;-39
2022/07/23 05:44:12;;;;;;;33.70;3.20;;;;;;;26.27;56.96;99407.03;7313544;19;130501;-39
2022/07/23 05:46:38;;;;;;;27.77;3.27;;;;;;;26.28;56.73;99423.69;7312583;19;129077;-34
2022/07/23 05:49:03;;;;;;;27.13;3.00;;;;;;;26.28;56.09;99445.56;7313362;19;128919;-45
2022/07/23 05:51:29;;;;;;;16.83;2.53;;;;;;;26.20;56.12;99437.72;7310995;19;129529;-35
2022/07/23 05:53:54;;;;;;;37.00;3.60;;;;;;;26.29;56.25;99451.66;7312443;19;129171;-38
2022/07/23 05:56:20;;;;;;;33.10;3.33;;;;;;;26.27;57.00;99443.94;7312409;19;129233;-38
2022/07/23 05:58:45;;;;;;;18.80;2.73;;;;;;;26.28;56.79;99429.75;7312627;19;129407;-37
2022/07/23 06:01:11;;;;;;;33.00;3.63;;;;;;;26.28;56.61;99434.22;7312914;19;130081;-37
2022/07/23 06:03:37;;;;;;;24.13;2.92;;;;;;;26.28;56.08;99445.56;7314329;19;129748;-40
2022/07/23 06:06:03;;;;;;;36.20;3.70;;;;;;;26.30;56.18;99464.66;7312972;19;129604;-37
2022/07/23 06:08:28;;;;;;;40.47;4.20;;;;;;;26.31;56.68;99468.13;7312766;19;128950;-39
2022/07/23 06:10:54;;;;;;;34.70;3.73;;;;;;;26.30;55.80;99475.22;7311959;19;129224;-34
2022/07/23 06:13:19;;;;;;;31.47;3.47;;;;;;;26.20;56.32;99464.06;7312859;19;129652;-36
2022/07/23 06:15:45;;;;;;;64.90;6.20;;;;;;;26.28;56.73;99471.13;7311875;19;129064;-39
2022/07/23 06:18:10;;;;;;;52.13;5.07;;;;;;;26.20;56.46;99456.16;7313097;19;128985;-38
2022/07/23 06:20:35;;;;;;;38.77;4.23;;;;;;;26.27;56.80;99475.56;7313350;19;130204;-36
2022/07/23 06:23:01;;;;;;;34.90;3.80;;;;;;;26.27;56.62;99486.09;7310581;19;129641;-39
2022/07/23 06:25:26;;;;;;;28.53;3.47;;;;;;;26.27;56.71;99496.66;7313747;19;129019;-36
2022/07/23 06:27:52;;;;;;;54.93;5.47;;;;;;;26.28;56.60;99493.00;7309524;19;129918;-39
2022/07/23 06:30:18;;;;;;;29.63;3.27;;;;;;;26.28;56.60;99498.28;7311211;19;131048;-38
2022/07/23 06:32:44;;;;;;;25.25;3.33;;;;;;;26.21;56.63;99489.44;7313116;19;130124;-36
2022/07/23 06:35:10;;;;;;;40.10;4.30;;;;;;;26.27;56.26;99496.66;7311962;19;129477;-38
2022/07/23 06:37:35;;;;;;;30.43;3.13;;;;;;;26.26;56.29;99500.25;7311151;19;129072;-39
2022/07/23 06:40:01;;;;;;;47.10;4.50;;;;;;;26.27;55.95;99507.19;7309690;19;129202;-37
2022/07/23 06:42:26;;;;;;;29.83;3.60;;;;;;;26.27;56.95;99506.38;7312417;19;129586;-37
2022/07/23 06:44:51;;;;;;;40.57;4.20;;;;;;;26.29;55.84;99507.84;7312424;19;129530;-38
2022/07/23 06:47:17;;;;;;;33.23;3.53;;;;;;;26.28;56.60;99502.75;7310671;19;130101;-36
2022/07/23 06:49:42;;;;;;;25.03;3.23;;;;;;;26.27;57.46;99491.38;7311710;19;129284;-36
2022/07/23 06:52:08;;;;;;;32.03;3.70;;;;;;;26.28;56.29;99498.28;7311622;19;129186;-40
2022/07/23 06:54:34;;;;;;;28.48;3.47;;;;;;;26.27;57.23;99501.91;7313482;19;129431;-38
2022/07/23 06:57:00;;;;;;;31.80;3.33;;;;;;;26.27;56.28;99496.66;7309050;19;128878;-38
2022/07/23 06:59:25;;;;;;;34.47;3.90;;;;;;;26.28;56.22;99493.00;7309722;19;129373;-39
2022/07/23 07:01:51;;;;;;;26.80;3.43;;;;;;;26.19;56.77;99480.88;7312002;19;129108;-36
2022/07/23 07:04:16;;;;;;;17.60;2.53;;;;;;;26.26;56.29;99484.44;7311477;19;128961;-36
2022/07/23 07:06:41;;;;;;;29.17;3.67;;;;;;;26.27;56.76;99480.84;7312260;19;129483;-36
2022/07/23 07:09:07;;;;;;;33.87;3.70;;;;;;;26.20;56.21;99473.78;7317887;19;129531;-38
2022/07/23 07:11:32;;;;;;;25.53;3.27;;;;;;;26.27;56.37;99491.38;7315039;19;130078;-40
2022/07/23 07:13:57;;;;;;;27.03;3.37;;;;;;;26.27;56.37;99462.38;7318135;19;129011;-39
2022/07/23 07:16:23;;;;;;;43.63;4.70;;;;;;;26.27;56.13;99458.91;7316484;19;129086;-40
2022/07/23 07:18:48;;;;;;;26.63;3.30;;;;;;;26.26;56.33;99463.34;7317262;19;129430;-43
2022/07/23 07:21:14;;;;;;;28.30;3.30;;;;;;;26.26;55.96;99468.63;7316306;19;129134;-38
2022/07/23 07:23:40;;;;;;;28.77;3.60;;;;;;;26.26;56.19;99460.72;7317956;19;128764;-40
2022/07/23 07:26:05;;;;;;;26.57;3.37;;;;;;;26.19;55.84;99465.06;7314671;19;129161;-35
2022/07/23 07:28:31;;;;;;;17.97;2.83;;;;;;;26.24;56.17;99475.91;7317389;19;129005;-41
2022/07/23 07:30:56;;;;;;;36.70;3.87;;;;;;;26.21;56.86;99455.19;7312993;19;130529;-39
2022/07/23 07:33:21;;;;;;;32.70;3.80;;;;;;;26.30;56.04;99474.38;7318165;19;129254;-35
2022/07/23 07:35:47;;;;;;;25.30;3.37;;;;;;;26.30;56.44;99479.66;7316979;19;129292;-38
2022/07/23 07:38:13;;;;;;;47.80;5.17;;;;;;;26.28;57.15;99482.47;7316785;19;130674;-41
2022/07/23 07:40:38;;;;;;;20.47;3.07;;;;;;;26.27;55.81;99480.00;7315823;19;129702;-38
2022/07/23 07:43:03;;;;;;;29.20;3.60;;;;;;;26.27;56.13;99469.47;7317002;19;129112;-39
2022/07/23 07:45:29;;;;;;;33.43;4.00;;;;;;;26.27;56.17;99472.94;7317829;19;129218;-37
2022/07/23 07:47:54;;;;;;;24.83;3.30;;;;;;;26.27;56.11;99490.53;7314906;19;129221;-36
2022/07/23 07:50:20;;;;;;;34.00;4.03;;;;;;;26.19;56.59;99472.16;7315358;19;129733;-38
2022/07/23 07:52:46;;;;;;;36.37;4.10;;;;;;;26.26;56.46;99484.44;7316776;19;129144;-38
2022/07/23 07:55:12;;;;;;;30.40;3.50;;;;;;;26.27;56.11;99488.75;7317439;19;129358;-35
2022/07/23 07:57:37;;;;;;;21.63;3.03;;;;;;;26.25;55.87;99497.81;7314572;19;130257;-39
2022/07/23 08:00:05;;;;;;;35.23;3.90;;;;;;;26.27;56.07;99486.09;7315989;19;129108;-36
2022/07/23 08:02:39;;;;;;;31.70;3.55;;;;;;;26.28;57.51;99477.19;7316225;19;129833;-38
2022/07/23 08:05:05;;;;;;;32.85;3.92;;;;;;;26.26;56.03;99468.63;7316502;19;128990;-41
2022/07/23 08:07:31;;;;;;;57.97;5.47;;;;;;;26.28;56.28;99460.59;7314797;19;129419;-38
2022/07/23 08:09:56;;;;;;;28.20;3.13;;;;;;;26.28;56.38;99461.38;7315138;19;130706;-41
2022/07/23 08:12:21;;;;;;;26.80;3.23;;;;;;;26.26;55.99;99468.63;7317241;19;129222;-38
2022/07/23 08:14:47;;;;;;;26.10;3.30;;;;;;;26.26;56.32;99468.63;7316469;19;129600;-34
2022/07/23 08:17:12;;;;;;;33.13;4.00;;;;;;;26.26;56.04;99463.34;7314283;19;129654;-40
2022/07/23 08:19:37;;;;;;;38.97;4.07;;;;;;;26.27;56.24;99459.75;7315081;19;129497;-43
2022/07/23 08:22:03;;;;;;;25.33;3.10;;;;;;;26.26;56.51;99458.09;7317022;19;129211;-38
2022/07/23 08:24:28;;;;;;;19.90;2.77;;;;;;;26.27;56.10;99451.00;7314757;19;129262;-42
2022/07/23 08:26:53;;;;;;;83.07;7.30;;;;;;;26.25;55.85;99445.91;7313383;19;129279;-38
2022/07/23 08:29:19;;;;;;;31.57;3.87;;;;;;;26.26;56.35;99446.75;7316064;19;130950;-39
2022/07/23 08:31:45;;;;;;;24.23;3.10;;;;;;;26.27;56.37;99459.75;7315223;19;128880;-42
2022/07/23 08:34:10;;;;;;;14.32;2.30;;;;;;;26.26;55.77;99452.00;7316725;19;129426;-40
2022/07/23 08:36:36;;;;;;;27.87;3.23;;;;;;;26.26;56.67;99460.72;7314687;19;129074;-36
2022/07/23 08:39:03;;;;;;;28.40;3.37;;;;;;;26.25;56.74;99453.81;7315602;19;130341;-38
2022/07/23 08:41:28;;;;;;;;;;;;;;;26.31;58.89;99447.84;7316041;19;129488;-39
2022/07/23 08:43:54;;;;;;;21.05;2.90;;;;;;;26.28;56.41;99447.41;7315702;19;129089;-37
2022/07/23 08:46:20;;;;;;;37.57;3.73;;;;;;;26.27;55.91;99458.91;7314187;19;128950;-36
2022/07/23 08:48:47;;;;;;;;;;;;;;;26.31;59.14;99457.59;7315216;19;129243;-41
2022/07/23 08:51:13;;;;;;;30.58;3.72;;;;;;;26.25;56.26;99453.81;7313941;19;128860;-41
2022/07/23 08:53:40;;;;;;;19.53;2.90;;;;;;;26.26;56.24;99457.28;7315729;19;129440;-36
2022/07/23 08:56:07;;;;;;;44.10;4.65;;;;;;;26.25;56.75;99453.81;7314260;19;129410;-35
2022/07/23 08:58:32;;;;;;;22.73;3.00;;;;;;;26.25;56.71;99459.09;7312740;19;129493;-36
2022/07/23 09:00:58;;;;;;;32.07;3.53;;;;;;;26.25;57.57;99461.72;7314692;19;128814;-41
2022/07/23 09:03:26;;;;;;;32.00;3.97;;;;;;;26.25;56.40;99468.81;7314097;19;128868;-42
2022/07/23 09:05:53;;;;;;;26.70;3.47;;;;;;;26.23;56.60;99473.44;7314275;19;130213;-40
2022/07/23 09:08:21;;;;;;;43.13;4.30;;;;;;;26.25;56.26;99472.28;7314461;19;129545;-36
2022/07/23 09:10:57;;;;;;;22.95;3.22;;;;;;;26.21;58.45;99464.88;7314420;19;129563;-37
2022/07/23 09:13:32;;;;;;;31.25;3.63;;;;;;;26.24;57.65;99475.91;7314515;19;129129;-39
2022/07/23 09:16:01;;;;;;;31.33;3.75;;;;;;;26.24;57.24;99480.34;7314957;19;130026;-39
2022/07/23 09:18:38;;;;;;;27.70;3.67;;;;;;;26.24;58.17;99485.63;7314671;19;130402;-38
2022/07/23 09:21:22;;;;;;;30.77;3.38;;;;;;;26.23;58.84;99492.69;7314464;19;128874;-40
2022/07/23 09:24:01;;;;;;;30.77;3.67;;;;;;;26.23;58.86;99484.78;7314586;19;129413;-41
2022/07/23 09:26:36;;;;;;;44.60;4.78;;;;;;;26.23;57.40;99476.88;7312715;19;129473;-39
2022/07/23 09:29:05;;;;;;;33.85;3.63;;;;;;;26.23;56.45;99486.63;7312434;19;130945;-37
2022/07/23 09:31:33;;;;;;;26.75;3.28;;;;;;;26.23;57.21;99490.06;7313521;19;130152;-40
2022/07/23 09:34:26;;;;;;;26.05;3.42;;;;;;;26.25;59.27;99476.72;7314522;19;128745;-39
2022/07/23 09:36:56;;;;;;;32.08;3.85;;;;;;;26.23;56.34;99478.72;7311582;19;130228;-37
2022/07/23 09:39:32;;;;;;;24.67;3.45;;;;;;;26.23;58.46;99470.81;7313045;19;129196;-33
2022/07/23 09:42:14;;;;;;;25.03;3.00;;;;;;;26.23;58.81;99474.25;7314598;19;129315;-37
2022/07/23 09:44:44;;;;;;;40.58;4.63;;;;;;;26.15;57.44;99469.03;7312967;19;129306;-37
2022/07/23 09:47:10;;;;;;;38.88;4.13;;;;;;;26.18;56.75;99481.84;7311767;19;129163;-39
2022/07/23 09:49:35;;;;;;;32.40;3.90;;;;;;;26.24;56.03;99502.28;7313421;19;129060;-38
2022/07/23 09:52:02;;;;;;;31.53;4.00;;;;;;;26.16;56.16;99488.31;7310800;19;129206;-40
2022/07/23 09:54:34;;;;;;;26.35;3.45;;;;;;;26.24;57.89;99511.97;7313365;19;129390;-40
2022/07/23 09:57:05;;;;;;;27.35;3.72;;;;;;;26.22;56.98;99506.88;7310982;19;130811;-36
2022/07/23 09:59:35;;;;;;;30.95;4.00;;;;;;;26.23;56.74;99505.09;7313674;19;130352;-37
2022/07/23 10:02:01;;;;;;;53.83;5.28;;;;;;;26.24;56.61;99511.97;7313076;19;129183;-40
2022/07/23 10:04:29;;;;;;;29.33;3.45;;;;;;;26.22;56.51;99501.63;7310289;19;129322;-37
2022/07/23 10:06:58;;;;;;;26.35;3.75;;;;;;;26.24;56.46;99497.00;7311380;19;129110;-40
2022/07/23 10:09:33;;;;;;;12.13;2.72;;;;;;;26.25;57.98;99498.63;7310904;19;129120;-36
2022/07/23 10:14:45;;;;;;;24.23;3.38;;;;;;;26.21;56.07;99517.59;7313695;19;129379;-38
2022/07/23 10:17:10;;;;;;;36.13;4.30;;;;;;;26.21;56.40;99513.16;7311837;19;129888;-36
2022/07/23 10:19:36;;;;;;;21.67;3.20;;;;;;;26.22;57.00;99514.78;7311355;19;130206;-37
2022/07/23 10:22:03;;;;;;;33.13;4.00;;;;;;;26.17;57.11;99505.75;7313168;19;129074;-41
2022/07/23 10:25:00;;;;;;;26.30;3.75;;;;;;;26.14;58.75;99504.28;7313002;19;128946;-36
2022/07/23 10:27:59;;;;;;;20.45;3.10;;;;;;;26.22;58.98;99522.69;7310888;19;130030;-37
2022/07/23 10:30:44;;;;;;;33.80;3.97;;;;;;;26.24;58.45;99522.53;7311039;19;129431;-37
2022/07/23 10:33:21;;;;;;;34.60;3.92;;;;;;;26.23;58.17;99534.88;7311371;19;128873;-38
2022/07/23 10:35:51;;;;;;;10.75;2.40;;;;;;;26.20;56.86;99529.94;7312933;19;128935;-40
2022/07/23 10:38:29;;;;;;;47.75;5.43;;;;;;;26.20;58.84;99542.28;7311273;19;129521;-42
2022/07/23 10:41:01;;;;;;;29.70;3.67;;;;;;;26.18;58.38;99533.75;7312883;19;130453;-38
2022/07/23 10:43:28;;;;;;;48.85;5.60;;;;;;;26.19;56.34;99532.75;7318902;19;130054;-40
2022/07/23 10:45:54;;;;;;;30.05;3.88;;;;;;;26.21;56.68;99533.41;7318094;19;128921;-37
2022/07/23 10:48:21;;;;;;;37.17;4.33;;;;;;;26.21;57.56;99544.78;7318145;19;129507;-33
2022/07/23 10:51:11;;;;;;;35.83;3.85;;;;;;;26.22;58.98;99533.25;7318059;19;129139;-37
2022/07/23 10:53:51;;;;;;;29.90;3.97;;;;;;;26.21;58.52;99551.88;7318840;19;128938;-41
2022/07/23 10:56:55;;;;;;;32.58;3.58;;;;;;;26.22;58.96;99551.69;7318144;19;129001;-37
2022/07/23 10:59:21;;;;;;;29.15;3.55;;;;;;;26.22;56.46;99545.59;7317652;19;130345;-40
2022/07/23 11:01:47;;;;;;;33.03;4.03;;;;;;;26.20;56.85;99548.41;7318695;19;130474;-43
2022/07/23 11:04:13;;;;;;;35.47;4.30;;;;;;;26.20;56.27;99548.41;7318157;19;128792;-38
2022/07/23 11:06:50;;;;;;;32.53;4.20;;;;;;;26.19;59.06;99557.31;7316934;19;128969;-38
2022/07/23 11:09:41;;;;;;;47.55;4.93;;;;;;;26.19;58.60;99562.56;7317753;19;130577;-38
2022/07/23 11:12:13;;;;;;;27.85;3.85;;;;;;;26.18;58.73;99549.56;7315895;19;131520;-40
2022/07/23 11:15:14;;;;;;;24.67;3.55;;;;;;;26.19;59.47;99541.50;7318396;19;129147;-35
2022/07/23 11:18:00;;;;;;;26.45;3.40;;;;;;;26.21;58.81;99544.78;7316310;19;129397;-40
2022/07/23 11:20:26;;;;;;;29.55;3.90;;;;;;;26.21;56.91;99543.97;7316768;19;129366;-39